Terminal Aerodrome Forecast
Issued by NWS Burlington, VT

Current Version | Previous Version | Text Only | Print | Product List | Glossary On
Versions: 1 2 3 4 5 6 7 8 9 10 11 12 13 14 15 16 17 18
198 FTUS41 KBTV 141729 TAFBTV TAF KBTV 141729Z 1418/1518 36008KT P6SM SCT020 FM150000 VRB03KT P6SM SKC FM151400 17007KT P6SM SCT250=

USA.gov is the U.S. government's official web portal to all federal, state and local government web resources and services.